sensor_id;sensor_type;location;lat;lon;timestamp;pressure;altitude;pressure_sealevel;temperature;humidity
75933;BME280;64803;52.356;5.310;2023-07-20T00:01:16;102003.25;;;15.20;100.00
75933;BME280;64803;52.356;5.310;2023-07-20T00:03:42;101997.84;;;15.20;100.00
75933;BME280;64803;52.356;5.310;2023-07-20T00:06:08;102006.97;;;15.19;100.00
75933;BME280;64803;52.356;5.310;2023-07-20T00:08:34;102004.28;;;15.19;100.00
75933;BME280;64803;52.356;5.310;2023-07-20T00:11:00;102001.09;;;15.15;100.00
75933;BME280;64803;52.356;5.310;2023-07-20T00:13:26;102004.63;;;15.16;100.00
75933;BME280;64803;52.356;5.310;2023-07-20T00:15:52;101997.25;;;15.10;100.00
75933;BME280;64803;52.356;5.310;2023-07-20T00:18:18;101997.09;;;15.03;100.00
75933;BME280;64803;52.356;5.310;2023-07-20T00:20:47;101993.91;;;15.00;100.00
75933;BME280;64803;52.356;5.310;2023-07-20T00:23:13;101991.94;;;14.94;100.00
75933;BME280;64803;52.356;5.310;2023-07-20T00:25:40;101993.97;;;14.92;100.00
75933;BME280;64803;52.356;5.310;2023-07-20T00:28:06;101984.22;;;14.83;100.00
75933;BME280;64803;52.356;5.310;2023-07-20T00:30:32;101986.06;;;14.82;100.00
75933;BME280;64803;52.356;5.310;2023-07-20T00:32:58;101985.78;;;14.77;100.00
75933;BME280;64803;52.356;5.310;2023-07-20T00:35:24;101976.34;;;14.73;100.00
75933;BME280;64803;52.356;5.310;2023-07-20T00:37:50;101966.41;;;14.65;100.00
75933;BME280;64803;52.356;5.310;2023-07-20T00:40:16;101969.47;;;14.62;100.00
75933;BME280;64803;52.356;5.310;2023-07-20T00:42:43;101961.38;;;14.62;100.00
75933;BME280;64803;52.356;5.310;2023-07-20T00:45:09;101962.06;;;14.56;100.00
75933;BME280;64803;52.356;5.310;2023-07-20T00:47:36;101971.53;;;14.52;100.00
75933;BME280;64803;52.356;5.310;2023-07-20T00:50:03;101964.81;;;14.48;100.00
75933;BME280;64803;52.356;5.310;2023-07-20T00:52:32;101961.25;;;14.48;100.00
75933;BME280;64803;52.356;5.310;2023-07-20T00:54:58;101965.13;;;14.45;100.00
75933;BME280;64803;52.356;5.310;2023-07-20T00:57:25;101949.28;;;14.42;100.00
75933;BME280;64803;52.356;5.310;2023-07-20T00:59:52;101929.44;;;14.27;100.00
75933;BME280;64803;52.356;5.310;2023-07-20T01:02:18;101957.09;;;14.37;100.00
75933;BME280;64803;52.356;5.310;2023-07-20T01:04:44;101948.97;;;14.37;100.00
75933;BME280;64803;52.356;5.310;2023-07-20T01:07:26;101957.94;;;14.38;100.00
75933;BME280;64803;52.356;5.310;2023-07-20T01:09:59;101958.25;;;14.35;100.00
75933;BME280;64803;52.356;5.310;2023-07-20T01:12:43;101957.94;;;14.38;100.00
75933;BME280;64803;52.356;5.310;2023-07-20T01:15:10;101961.47;;;14.38;100.00
75933;BME280;64803;52.356;5.310;2023-07-20T01:17:36;101966.22;;;14.36;100.00
75933;BME280;64803;52.356;5.310;2023-07-20T01:20:02;101957.63;;;14.33;100.00
75933;BME280;64803;52.356;5.310;2023-07-20T01:31:25;101957.78;;;14.31;100.00
75933;BME280;64803;52.356;5.310;2023-07-20T01:33:55;101955.91;;;14.32;100.00
75933;BME280;64803;52.356;5.310;2023-07-20T01:36:23;101949.84;;;14.30;100.00
75933;BME280;64803;52.356;5.310;2023-07-20T01:38:51;101945.09;;;14.32;100.00
75933;BME280;64803;52.356;5.310;2023-07-20T01:41:18;101951.00;;;14.35;100.00
75933;BME280;64803;52.356;5.310;2023-07-20T01:43:44;101942.91;;;14.35;100.00
75933;BME280;64803;52.356;5.310;2023-07-20T01:46:10;101945.91;;;14.40;100.00
75933;BME280;64803;52.356;5.310;2023-07-20T01:48:36;101945.25;;;14.38;100.00
75933;BME280;64803;52.356;5.310;2023-07-20T01:51:02;101950.31;;;14.41;100.00
75933;BME280;64803;52.356;5.310;2023-07-20T01:53:28;101945.91;;;14.40;100.00
75933;BME280;64803;52.356;5.310;2023-07-20T01:55:54;101942.03;;;14.35;100.00
75933;BME280;64803;52.356;5.310;2023-07-20T01:58:20;101951.69;;;14.37;100.00
75933;BME280;64803;52.356;5.310;2023-07-20T02:00:46;101943.75;;;14.36;100.00
75933;BME280;64803;52.356;5.310;2023-07-20T02:03:13;101943.75;;;14.36;100.00
75933;BME280;64803;52.356;5.310;2023-07-20T02:05:39;101946.63;;;14.34;100.00
75933;BME280;64803;52.356;5.310;2023-07-20T02:08:05;101963.66;;;14.35;100.00
75933;BME280;64803;52.356;5.310;2023-07-20T02:10:31;101970.28;;;14.32;100.00
75933;BME280;64803;52.356;5.310;2023-07-20T02:12:57;101963.53;;;14.28;100.00
75933;BME280;64803;52.356;5.310;2023-07-20T02:15:23;101946.31;;;14.21;100.00
75933;BME280;64803;52.356;5.310;2023-07-20T02:17:51;101928.47;;;14.04;100.00
75933;BME280;64803;52.356;5.310;2023-07-20T02:20:17;101953.09;;;14.17;100.00
75933;BME280;64803;52.356;5.310;2023-07-20T02:22:43;101964.59;;;14.11;100.00
75933;BME280;64803;52.356;5.310;2023-07-20T02:25:09;101950.09;;;14.04;100.00
75933;BME280;64803;52.356;5.310;2023-07-20T02:27:36;101959.19;;;14.11;100.00
75933;BME280;64803;52.356;5.310;2023-07-20T02:30:03;101958.50;;;14.09;100.00
75933;BME280;64803;52.356;5.310;2023-07-20T02:32:30;101957.16;;;14.05;100.00
75933;BME280;64803;52.356;5.310;2023-07-20T02:34:57;101957.50;;;14.02;100.00
75933;BME280;64803;52.356;5.310;2023-07-20T02:37:24;101956.16;;;13.98;100.00
75933;BME280;64803;52.356;5.310;2023-07-20T02:39:50;101958.03;;;13.90;100.00
75933;BME280;64803;52.356;5.310;2023-07-20T02:42:16;101957.22;;;13.89;100.00
75933;BME280;64803;52.356;5.310;2023-07-20T02:44:43;101962.94;;;13.86;100.00
75933;BME280;64803;52.356;5.310;2023-07-20T02:47:09;101955.53;;;13.88;100.00
75933;BME280;64803;52.356;5.310;2023-07-20T02:49:35;101943.56;;;13.75;100.00
75933;BME280;64803;52.356;5.310;2023-07-20T02:52:01;101958.25;;;13.80;100.00
75933;BME280;64803;52.356;5.310;2023-07-20T02:54:29;101954.22;;;13.68;100.00
75933;BME280;64803;52.356;5.310;2023-07-20T02:56:56;101924.22;;;13.47;100.00
75933;BME280;64803;52.356;5.310;2023-07-20T02:59:22;101951.03;;;13.65;100.00
75933;BME280;64803;52.356;5.310;2023-07-20T03:01:48;101956.59;;;13.63;100.00
75933;BME280;64803;52.356;5.310;2023-07-20T03:04:14;101949.50;;;13.62;100.00
75933;BME280;64803;52.356;5.310;2023-07-20T03:06:42;101953.88;;;13.71;100.00
75933;BME280;64803;52.356;5.310;2023-07-20T03:09:08;101959.94;;;13.65;100.00
75933;BME280;64803;52.356;5.310;2023-07-20T03:11:35;101953.22;;;13.61;100.00
75933;BME280;64803;52.356;5.310;2023-07-20T03:14:01;101962.69;;;13.49;100.00
75933;BME280;64803;52.356;5.310;2023-07-20T03:16:27;101961.66;;;13.34;100.00
75933;BME280;64803;52.356;5.310;2023-07-20T03:18:53;101972.47;;;13.26;100.00
75933;BME280;64803;52.356;5.310;2023-07-20T03:21:20;101970.75;;;13.17;100.00
75933;BME280;64803;52.356;5.310;2023-07-20T03:23:46;101976.50;;;13.14;100.00
75933;BME280;64803;52.356;5.310;2023-07-20T03:26:12;101973.13;;;13.12;100.00
75933;BME280;64803;52.356;5.310;2023-07-20T03:28:38;101943.72;;;12.77;100.00
75933;BME280;64803;52.356;5.310;2023-07-20T03:31:05;101978.41;;;12.80;100.00
75933;BME280;64803;52.356;5.310;2023-07-20T03:33:34;101971.00;;;12.66;100.00
75933;BME280;64803;52.356;5.310;2023-07-20T03:36:00;101957.81;;;12.55;100.00
75933;BME280;64803;52.356;5.310;2023-07-20T03:38:27;101976.69;;;12.55;100.00
75933;BME280;64803;52.356;5.310;2023-07-20T03:40:58;101975.13;;;12.52;100.00
75933;BME280;64803;52.356;5.310;2023-07-20T03:43:27;101969.56;;;12.45;100.00
75933;BME280;64803;52.356;5.310;2023-07-20T03:45:54;101979.69;;;12.52;100.00
75933;BME280;64803;52.356;5.310;2023-07-20T03:48:22;101976.00;;;12.61;100.00
75933;BME280;64803;52.356;5.310;2023-07-20T03:50:50;101984.09;;;12.61;100.00
75933;BME280;64803;52.356;5.310;2023-07-20T03:53:17;101979.38;;;12.55;100.00
75933;BME280;64803;52.356;5.310;2023-07-20T03:55:47;101955.72;;;12.32;100.00
75933;BME280;64803;52.356;5.310;2023-07-20T03:58:14;101992.59;;;12.40;100.00
75933;BME280;64803;52.356;5.310;2023-07-20T04:00:44;101994.94;;;12.35;100.00
75933;BME280;64803;52.356;5.310;2023-07-20T04:03:10;101990.34;;;12.27;100.00
75933;BME280;64803;52.356;5.310;2023-07-20T04:05:36;102001.50;;;12.32;100.00
75933;BME280;64803;52.356;5.310;2023-07-20T04:08:02;101999.56;;;12.51;100.00
75933;BME280;64803;52.356;5.310;2023-07-20T04:10:28;101994.88;;;12.61;100.00
75933;BME280;64803;52.356;5.310;2023-07-20T04:12:55;102005.88;;;12.67;100.00
75933;BME280;64803;52.356;5.310;2023-07-20T04:15:21;102008.91;;;12.72;100.00
75933;BME280;64803;52.356;5.310;2023-07-20T04:17:47;102008.22;;;12.78;100.00
75933;BME280;64803;52.356;5.310;2023-07-20T04:20:13;102015.50;;;12.86;100.00
75933;BME280;64803;52.356;5.310;2023-07-20T04:22:42;102021.94;;;12.93;100.00
75933;BME280;64803;52.356;5.310;2023-07-20T04:25:11;102021.81;;;13.02;100.00
75933;BME280;64803;52.356;5.310;2023-07-20T04:27:37;102027.88;;;13.04;100.00
75933;BME280;64803;52.356;5.310;2023-07-20T04:30:03;102028.06;;;13.03;100.00
75933;BME280;64803;52.356;5.310;2023-07-20T04:32:30;102025.66;;;13.00;100.00
75933;BME280;64803;52.356;5.310;2023-07-20T04:35:00;102029.84;;;12.94;100.00
75933;BME280;64803;52.356;5.310;2023-07-20T04:37:27;102036.09;;;12.95;100.00
75933;BME280;64803;52.356;5.310;2023-07-20T04:39:53;102033.56;;;12.93;100.00
75933;BME280;64803;52.356;5.310;2023-07-20T04:42:19;101998.63;;;12.76;100.00
75933;BME280;64803;52.356;5.310;2023-07-20T04:44:46;102038.84;;;13.03;100.00
75933;BME280;64803;52.356;5.310;2023-07-20T04:47:12;102046.13;;;13.10;100.00
75933;BME280;64803;52.356;5.310;2023-07-20T04:49:38;102049.84;;;13.17;100.00
75933;BME280;64803;52.356;5.310;2023-07-20T04:52:05;102052.53;;;13.25;100.00
75933;BME280;64803;52.356;5.310;2023-07-20T04:54:32;102053.41;;;13.26;100.00
75933;BME280;64803;52.356;5.310;2023-07-20T04:56:58;102058.28;;;13.30;100.00
75933;BME280;64803;52.356;5.310;2023-07-20T04:59:24;102054.25;;;13.34;100.00
75933;BME280;64803;52.356;5.310;2023-07-20T05:01:50;102067.94;;;13.49;100.00
75933;BME280;64803;52.356;5.310;2023-07-20T05:04:17;102075.69;;;13.60;100.00
75933;BME280;64803;52.356;5.310;2023-07-20T05:06:43;102058.16;;;13.56;100.00
75933;BME280;64803;52.356;5.310;2023-07-20T05:09:09;102074.03;;;13.75;100.00
75933;BME280;64803;52.356;5.310;2023-07-20T05:11:35;102064.56;;;13.79;100.00
75933;BME280;64803;52.356;5.310;2023-07-20T05:14:01;102071.47;;;13.90;100.00
75933;BME280;64803;52.356;5.310;2023-07-20T05:16:28;102083.13;;;14.06;100.00
75933;BME280;64803;52.356;5.310;2023-07-20T05:18:59;102084.28;;;14.20;100.00
75933;BME280;64803;52.356;5.310;2023-07-20T05:21:25;102083.78;;;14.32;100.00
75933;BME280;64803;52.356;5.310;2023-07-20T05:23:52;102089.47;;;14.45;100.00
75933;BME280;64803;52.356;5.310;2023-07-20T05:26:18;102087.44;;;14.47;100.00
75933;BME280;64803;52.356;5.310;2023-07-20T05:28:44;102089.84;;;14.50;100.00
75933;BME280;64803;52.356;5.310;2023-07-20T05:31:10;102081.72;;;14.50;100.00
75933;BME280;64803;52.356;5.310;2023-07-20T05:33:36;102077.97;;;14.51;100.00
75933;BME280;64803;52.356;5.310;2023-07-20T05:36:02;102080.47;;;14.61;100.00
75933;BME280;64803;52.356;5.310;2023-07-20T05:38:28;102086.38;;;14.73;100.00
75933;BME280;64803;52.356;5.310;2023-07-20T05:40:59;102094.06;;;14.84;100.00
75933;BME280;64803;52.356;5.310;2023-07-20T05:43:25;102095.72;;;15.01;100.00
75933;BME280;64803;52.356;5.310;2023-07-20T05:45:51;102093.09;;;15.15;100.00
75933;BME280;64803;52.356;5.310;2023-07-20T05:48:17;102093.19;;;15.30;100.00
75933;BME280;64803;52.356;5.310;2023-07-20T05:50:43;102091.19;;;15.54;100.00
75933;BME280;64803;52.356;5.310;2023-07-20T05:53:09;102095.56;;;15.78;100.00
75933;BME280;64803;52.356;5.310;2023-07-20T05:55:35;102091.25;;;15.92;100.00
75933;BME280;64803;52.356;5.310;2023-07-20T05:58:01;102096.09;;;15.96;100.00
75933;BME280;64803;52.356;5.310;2023-07-20T06:00:27;102093.47;;;15.88;100.00
75933;BME280;64803;52.356;5.310;2023-07-20T06:02:54;102078.47;;;16.00;100.00
75933;BME280;64803;52.356;5.310;2023-07-20T06:05:23;102081.66;;;16.04;100.00
75933;BME280;64803;52.356;5.310;2023-07-20T06:07:50;102071.44;;;16.06;100.00
75933;BME280;64803;52.356;5.310;2023-07-20T06:10:16;102067.09;;;16.19;100.00
75933;BME280;64803;52.356;5.310;2023-07-20T06:12:42;102053.81;;;16.24;100.00
75933;BME280;64803;52.356;5.310;2023-07-20T06:15:33;102046.16;;;16.42;100.00
75933;BME280;64803;52.356;5.310;2023-07-20T06:18:01;102034.22;;;16.51;100.00
75933;BME280;64803;52.356;5.310;2023-07-20T06:20:27;102028.53;;;16.46;100.00
75933;BME280;64803;52.356;5.310;2023-07-20T06:22:53;102029.38;;;16.61;100.00
75933;BME280;64803;52.356;5.310;2023-07-20T06:25:19;102022.03;;;16.76;100.00
75933;BME280;64803;52.356;5.310;2023-07-20T06:27:48;102003.78;;;16.85;100.00
75933;BME280;64803;52.356;5.310;2023-07-20T06:30:14;102014.75;;;17.13;100.00
75933;BME280;64803;52.356;5.310;2023-07-20T06:32:41;102007.38;;;17.07;100.00
75933;BME280;64803;52.356;5.310;2023-07-20T06:35:07;102003.50;;;17.16;100.00
75933;BME280;64803;52.356;5.310;2023-07-20T06:37:34;102000.31;;;17.12;100.00
75933;BME280;64803;52.356;5.310;2023-07-20T06:40:04;101993.69;;;16.79;100.00
75933;BME280;64803;52.356;5.310;2023-07-20T06:42:30;101992.34;;;16.54;100.00
75933;BME280;64803;52.356;5.310;2023-07-20T06:44:57;101989.63;;;16.25;100.00
75933;BME280;64803;52.356;5.310;2023-07-20T06:47:23;101986.91;;;16.10;100.00
75933;BME280;64803;52.356;5.310;2023-07-20T06:49:49;101985.28;;;16.01;100.00
75933;BME280;64803;52.356;5.310;2023-07-20T06:52:15;101991.63;;;15.94;100.00
75933;BME280;64803;52.356;5.310;2023-07-20T06:54:41;101983.97;;;15.83;100.00
75933;BME280;64803;52.356;5.310;2023-07-20T06:57:07;101995.34;;;15.78;100.00
75933;BME280;64803;52.356;5.310;2023-07-20T06:59:33;101992.81;;;15.76;100.00
75933;BME280;64803;52.356;5.310;2023-07-20T07:01:59;101990.59;;;15.80;100.00
75933;BME280;64803;52.356;5.310;2023-07-20T07:04:25;101996.97;;;16.02;100.00
75933;BME280;64803;52.356;5.310;2023-07-20T07:06:51;101990.47;;;16.11;100.00
75933;BME280;64803;52.356;5.310;2023-07-20T07:09:17;101995.22;;;16.38;100.00
75933;BME280;64803;52.356;5.310;2023-07-20T07:11:44;101984.75;;;16.49;100.00
75933;BME280;64803;52.356;5.310;2023-07-20T07:14:12;101987.47;;;16.49;100.00
75933;BME280;64803;52.356;5.310;2023-07-20T07:16:38;101973.44;;;16.60;100.00
75933;BME280;64803;52.356;5.310;2023-07-20T07:19:04;101975.88;;;16.55;100.00
75933;BME280;64803;52.356;5.310;2023-07-20T07:21:31;101969.69;;;16.61;100.00
75933;BME280;64803;52.356;5.310;2023-07-20T07:23:57;101971.50;;;16.75;100.00
75933;BME280;64803;52.356;5.310;2023-07-20T07:26:25;101971.09;;;16.93;100.00
75933;BME280;64803;52.356;5.310;2023-07-20T07:28:51;101965.09;;;16.98;100.00
75933;BME280;64803;52.356;5.310;2023-07-20T07:31:17;101945.00;;;16.92;100.00
75933;BME280;64803;52.356;5.310;2023-07-20T07:33:43;101968.06;;;17.03;100.00
75933;BME280;64803;52.356;5.310;2023-07-20T07:36:09;101956.44;;;16.88;100.00
75933;BME280;64803;52.356;5.310;2023-07-20T07:38:35;101960.09;;;16.80;100.00
75933;BME280;64803;52.356;5.310;2023-07-20T07:41:01;101952.28;;;16.92;100.00
75933;BME280;64803;52.356;5.310;2023-07-20T07:43:27;101949.97;;;16.88;100.00
75933;BME280;64803;52.356;5.310;2023-07-20T07:45:54;101958.38;;;16.94;100.00
75933;BME280;64803;52.356;5.310;2023-07-20T07:48:20;101957.22;;;17.03;100.00
75933;BME280;64803;52.356;5.310;2023-07-20T07:50:47;101956.81;;;17.06;100.00
75933;BME280;64803;52.356;5.310;2023-07-20T07:53:13;101949.41;;;17.14;100.00
75933;BME280;64803;52.356;5.310;2023-07-20T07:55:39;101957.63;;;17.21;100.00
75933;BME280;64803;52.356;5.310;2023-07-20T07:58:05;101958.78;;;17.33;100.00
75933;BME280;64803;52.356;5.310;2023-07-20T08:00:31;101953.25;;;17.26;100.00
75933;BME280;64803;52.356;5.310;2023-07-20T08:02:57;101952.00;;;17.22;100.00
75933;BME280;64803;52.356;5.310;2023-07-20T08:05:23;101947.84;;;17.26;100.00
75933;BME280;64803;52.356;5.310;2023-07-20T08:07:50;101950.44;;;17.34;100.00
75933;BME280;64803;52.356;5.310;2023-07-20T08:10:16;101943.31;;;17.33;100.00
75933;BME280;64803;52.356;5.310;2023-07-20T08:12:42;101949.88;;;17.45;100.00
75933;BME280;64803;52.356;5.310;2023-07-20T08:15:11;101959.75;;;17.46;100.00
75933;BME280;64803;52.356;5.310;2023-07-20T08:17:37;101943.50;;;17.53;100.00
75933;BME280;64803;52.356;5.310;2023-07-20T08:20:03;101949.78;;;17.53;100.00
75933;BME280;64803;52.356;5.310;2023-07-20T08:22:29;101943.34;;;17.61;100.00
75933;BME280;64803;52.356;5.310;2023-07-20T08:24:55;101944.91;;;17.70;100.00
75933;BME280;64803;52.356;5.310;2023-07-20T08:27:21;101949.56;;;17.76;100.00
75933;BME280;64803;52.356;5.310;2023-07-20T08:29:47;101947.56;;;17.91;100.00
75933;BME280;64803;52.356;5.310;2023-07-20T08:32:13;101941.56;;;18.02;100.00
75933;BME280;64803;52.356;5.310;2023-07-20T08:34:41;101943.91;;;18.12;100.00
75933;BME280;64803;52.356;5.310;2023-07-20T08:37:08;101948.13;;;18.14;100.00
75933;BME280;64803;52.356;5.310;2023-07-20T08:39:35;101946.03;;;18.10;100.00
75933;BME280;64803;52.356;5.310;2023-07-20T08:42:02;101940.28;;;17.64;100.00
75933;BME280;64803;52.356;5.310;2023-07-20T08:44:36;101959.41;;;17.56;100.00
75933;BME280;64803;52.356;5.310;2023-07-20T08:47:04;101965.03;;;17.82;100.00
75933;BME280;64803;52.356;5.310;2023-07-20T08:49:31;101958.91;;;18.01;100.00
75933;BME280;64803;52.356;5.310;2023-07-20T08:51:59;101957.22;;;17.93;100.00
75933;BME280;64803;52.356;5.310;2023-07-20T08:54:28;101950.13;;;17.99;100.00
75933;BME280;64803;52.356;5.310;2023-07-20T08:56:57;101953.53;;;18.08;100.00
75933;BME280;64803;52.356;5.310;2023-07-20T08:59:24;101964.50;;;18.27;100.00
75933;BME280;64803;52.356;5.310;2023-07-20T09:01:52;101957.31;;;18.47;100.00
75933;BME280;64803;52.356;5.310;2023-07-20T09:04:20;101948.38;;;18.60;100.00
75933;BME280;64803;52.356;5.310;2023-07-20T09:06:46;101949.97;;;18.41;100.00
75933;BME280;64803;52.356;5.310;2023-07-20T09:09:13;101944.31;;;18.09;100.00
75933;BME280;64803;52.356;5.310;2023-07-20T09:11:40;101937.56;;;17.98;100.00
75933;BME280;64803;52.356;5.310;2023-07-20T09:14:07;101952.38;;;18.23;100.00
75933;BME280;64803;52.356;5.310;2023-07-20T09:16:49;101948.09;;;18.08;100.00
75933;BME280;64803;52.356;5.310;2023-07-20T09:19:16;101943.00;;;17.98;100.00
75933;BME280;64803;52.356;5.310;2023-07-20T09:21:49;101952.22;;;17.97;100.00
75933;BME280;64803;52.356;5.310;2023-07-20T09:24:18;101953.09;;;18.04;100.00
75933;BME280;64803;52.356;5.310;2023-07-20T09:26:45;101950.13;;;17.99;100.00
75933;BME280;64803;52.356;5.310;2023-07-20T09:29:17;101949.31;;;18.05;100.00
75933;BME280;64803;52.356;5.310;2023-07-20T09:31:58;101946.09;;;18.29;100.00
75933;BME280;64803;52.356;5.310;2023-07-20T09:34:24;101946.41;;;18.41;100.00
75933;BME280;64803;52.356;5.310;2023-07-20T09:36:50;101942.97;;;18.73;100.00
75933;BME280;64803;52.356;5.310;2023-07-20T09:39:17;101946.44;;;19.14;100.00
75933;BME280;64803;52.356;5.310;2023-07-20T09:41:43;101938.06;;;19.22;100.00
75933;BME280;64803;52.356;5.310;2023-07-20T09:44:10;101945.44;;;19.67;100.00
75933;BME280;64803;52.356;5.310;2023-07-20T09:46:49;101929.66;;;19.82;100.00
75933;BME280;64803;52.356;5.310;2023-07-20T09:49:19;101932.63;;;19.87;100.00
75933;BME280;64803;52.356;5.310;2023-07-20T09:51:46;101937.66;;;19.77;100.00
75933;BME280;64803;52.356;5.310;2023-07-20T09:54:13;101939.34;;;19.59;100.00
75933;BME280;64803;52.356;5.310;2023-07-20T09:56:42;101933.88;;;19.46;100.00
75933;BME280;64803;52.356;5.310;2023-07-20T09:59:07;101939.78;;;19.36;100.00
75933;BME280;64803;52.356;5.310;2023-07-20T10:01:34;101941.22;;;19.39;100.00
75933;BME280;64803;52.356;5.310;2023-07-20T10:04:02;101936.63;;;19.59;100.00
75933;BME280;64803;52.356;5.310;2023-07-20T10:06:29;101921.06;;;19.92;100.00
75933;BME280;64803;52.356;5.310;2023-07-20T10:09:02;101934.41;;;20.26;100.00
75933;BME280;64803;52.356;5.310;2023-07-20T10:11:35;101929.56;;;20.41;100.00
75933;BME280;64803;52.356;5.310;2023-07-20T10:14:04;101927.78;;;20.60;100.00
75933;BME280;64803;52.356;5.310;2023-07-20T10:16:39;101922.34;;;20.91;100.00
75933;BME280;64803;52.356;5.310;2023-07-20T10:19:17;101918.47;;;20.74;100.00
75933;BME280;64803;52.356;5.310;2023-07-20T10:22:03;101925.38;;;20.32;100.00
75933;BME280;64803;52.356;5.310;2023-07-20T10:24:30;101926.25;;;20.20;100.00
75933;BME280;64803;52.356;5.310;2023-07-20T10:26:57;101926.91;;;20.22;100.00
75933;BME280;64803;52.356;5.310;2023-07-20T10:29:24;101914.41;;;20.52;100.00
75933;BME280;64803;52.356;5.310;2023-07-20T10:31:54;101914.19;;;20.53;100.00
75933;BME280;64803;52.356;5.310;2023-07-20T10:34:22;101914.84;;;20.42;100.00
75933;BME280;64803;52.356;5.310;2023-07-20T10:36:48;101921.06;;;20.62;100.00
75933;BME280;64803;52.356;5.310;2023-07-20T10:39:25;101922.41;;;20.84;100.00
75933;BME280;64803;52.356;5.310;2023-07-20T10:42:03;101927.28;;;20.32;100.00
75933;BME280;64803;52.356;5.310;2023-07-20T10:44:32;101915.50;;;20.75;100.00
75933;BME280;64803;52.356;5.310;2023-07-20T10:47:02;101914.31;;;20.65;100.00
75933;BME280;64803;52.356;5.310;2023-07-20T10:49:34;101911.81;;;20.63;100.00
75933;BME280;64803;52.356;5.310;2023-07-20T10:52:05;101915.09;;;20.34;100.00
75933;BME280;64803;52.356;5.310;2023-07-20T10:56:59;101910.34;;;20.10;100.00
75933;BME280;64803;52.356;5.310;2023-07-20T10:59:46;101910.94;;;20.25;100.00
75933;BME280;64803;52.356;5.310;2023-07-20T11:02:12;101898.91;;;20.39;100.00
75933;BME280;64803;52.356;5.310;2023-07-20T11:07:06;101898.63;;;20.91;100.00
75933;BME280;64803;52.356;5.310;2023-07-20T11:09:38;101874.38;;;20.70;100.00
75933;BME280;64803;52.356;5.310;2023-07-20T11:12:11;101898.53;;;21.04;100.00
75933;BME280;64803;52.356;5.310;2023-07-20T11:14:42;101895.56;;;21.12;100.00
75933;BME280;64803;52.356;5.310;2023-07-20T11:17:13;101861.25;;;20.85;100.00
75933;BME280;64803;52.356;5.310;2023-07-20T11:19:39;101846.56;;;20.55;100.00
75933;BME280;64803;52.356;5.310;2023-07-20T11:22:06;101884.88;;;21.04;100.00
75933;BME280;64803;52.356;5.310;2023-07-20T11:24:33;101882.13;;;21.36;100.00
75933;BME280;64803;52.356;5.310;2023-07-20T11:27:00;101877.53;;;21.54;100.00
75933;BME280;64803;52.356;5.310;2023-07-20T11:29:27;101880.59;;;21.40;100.00
75933;BME280;64803;52.356;5.310;2023-07-20T11:31:53;101875.09;;;21.21;100.00
75933;BME280;64803;52.356;5.310;2023-07-20T11:34:21;101852.25;;;20.85;100.00
75933;BME280;64803;52.356;5.310;2023-07-20T11:36:49;101882.16;;;21.04;100.00
75933;BME280;64803;52.356;5.310;2023-07-20T11:39:18;101836.81;;;20.97;100.00
75933;BME280;64803;52.356;5.310;2023-07-20T11:41:56;101870.44;;;21.29;100.00
75933;BME280;64803;52.356;5.310;2023-07-20T11:44:27;101845.38;;;21.50;100.00
75933;BME280;64803;52.356;5.310;2023-07-20T11:47:07;101866.38;;;21.56;100.00
75933;BME280;64803;52.356;5.310;2023-07-20T11:52:07;101859.34;;;21.42;100.00
75933;BME280;64803;52.356;5.310;2023-07-20T11:54:34;101865.44;;;21.44;100.00
75933;BME280;64803;52.356;5.310;2023-07-20T11:57:01;101859.56;;;21.65;100.00
75933;BME280;64803;52.356;5.310;2023-07-20T11:59:27;101845.34;;;21.56;100.00
75933;BME280;64803;52.356;5.310;2023-07-20T12:01:53;101859.63;;;21.76;100.00
75933;BME280;64803;52.356;5.310;2023-07-20T12:04:22;101853.97;;;21.78;100.00
75933;BME280;64803;52.356;5.310;2023-07-20T12:06:48;101858.56;;;21.59;100.00
75933;BME280;64803;52.356;5.310;2023-07-20T12:09:16;101853.97;;;21.10;100.00
75933;BME280;64803;52.356;5.310;2023-07-20T12:11:44;101856.53;;;21.05;100.00
75933;BME280;64803;52.356;5.310;2023-07-20T12:14:11;101862.56;;;21.14;100.00
75933;BME280;64803;52.356;5.310;2023-07-20T12:16:37;101854.63;;;21.31;100.00
75933;BME280;64803;52.356;5.310;2023-07-20T12:19:08;101847.22;;;21.56;100.00
75933;BME280;64803;52.356;5.310;2023-07-20T12:21:36;101849.84;;;21.26;100.00
75933;BME280;64803;52.356;5.310;2023-07-20T12:24:03;101857.22;;;20.63;100.00
75933;BME280;64803;52.356;5.310;2023-07-20T12:26:30;101856.47;;;20.50;100.00
75933;BME280;64803;52.356;5.310;2023-07-20T12:28:57;101815.03;;;21.15;100.00
75933;BME280;64803;52.356;5.310;2023-07-20T12:31:25;101842.66;;;21.50;100.00
75933;BME280;64803;52.356;5.310;2023-07-20T12:33:52;101853.13;;;21.35;100.00
75933;BME280;64803;52.356;5.310;2023-07-20T12:36:18;101849.66;;;21.46;100.00
75933;BME280;64803;52.356;5.310;2023-07-20T12:38:45;101837.78;;;21.34;100.00
75933;BME280;64803;52.356;5.310;2023-07-20T12:41:12;101840.38;;;21.47;100.00
75933;BME280;64803;52.356;5.310;2023-07-20T12:43:43;101846.78;;;21.59;100.00
75933;BME280;64803;52.356;5.310;2023-07-20T12:46:10;101839.53;;;22.07;100.00
75933;BME280;64803;52.356;5.310;2023-07-20T12:48:37;101814.38;;;22.46;100.00
75933;BME280;64803;52.356;5.310;2023-07-20T12:51:06;101837.38;;;22.75;100.00
75933;BME280;64803;52.356;5.310;2023-07-20T12:53:33;101842.56;;;21.99;100.00
75933;BME280;64803;52.356;5.310;2023-07-20T12:55:59;101835.06;;;21.52;100.00
75933;BME280;64803;52.356;5.310;2023-07-20T12:58:26;101833.03;;;21.22;100.00